createdAt,value
2023-03-20T00:02:05.620Z,13.60
2023-03-20T00:04:32.693Z,13.60
2023-03-20T00:06:59.466Z,13.50
2023-03-20T00:09:26.711Z,13.50
2023-03-20T00:11:55.627Z,13.50
2023-03-20T00:14:24.839Z,13.50
2023-03-20T00:16:52.090Z,13.50
2023-03-20T00:19:27.979Z,13.50
2023-03-20T00:21:55.566Z,13.50
2023-03-20T00:24:23.179Z,13.50
2023-03-20T00:26:51.209Z,13.40
2023-03-20T00:29:30.871Z,13.40
2023-03-20T00:31:58.604Z,13.40
2023-03-20T00:34:29.550Z,13.40
2023-03-20T00:36:58.114Z,13.40
2023-03-20T00:39:26.273Z,13.40
2023-03-20T00:42:00.745Z,13.40
2023-03-20T00:44:48.158Z,13.40
2023-03-20T00:47:24.329Z,13.30
2023-03-20T00:49:53.016Z,13.30
2023-03-20T00:52:21.628Z,13.30
2023-03-20T00:54:48.430Z,13.30
2023-03-20T00:57:26.627Z,13.30
2023-03-20T01:00:07.864Z,13.30
2023-03-20T01:02:34.796Z,13.30
2023-03-20T01:05:02.262Z,13.30
2023-03-20T01:07:29.094Z,13.30
2023-03-20T01:09:56.257Z,13.20
2023-03-20T01:12:24.290Z,13.30
2023-03-20T01:14:54.725Z,13.20
2023-03-20T01:17:23.194Z,13.20
2023-03-20T01:19:50.256Z,13.20
2023-03-20T01:22:19.739Z,13.20
2023-03-20T01:24:47.448Z,13.20
2023-03-20T01:27:16.623Z,13.10
2023-03-20T01:29:43.679Z,13.10
2023-03-20T01:32:15.056Z,13.10
2023-03-20T01:34:41.987Z,13.10
2023-03-20T01:37:23.159Z,13.10
2023-03-20T01:39:49.950Z,13.10
2023-03-20T01:42:17.226Z,13.10
2023-03-20T01:44:45.802Z,13.00
2023-03-20T01:47:18.361Z,13.00
2023-03-20T01:50:13.498Z,13.00
2023-03-20T01:52:40.359Z,13.00
2023-03-20T01:55:07.244Z,13.00
2023-03-20T01:57:34.785Z,13.00
2023-03-20T02:00:10.591Z,13.00
2023-03-20T02:02:39.240Z,13.00
2023-03-20T02:05:10.523Z,13.00
2023-03-20T02:07:39.271Z,13.00
2023-03-20T02:10:10.872Z,13.00
2023-03-20T02:12:38.964Z,13.00
2023-03-20T02:15:07.585Z,13.00
2023-03-20T02:17:35.633Z,13.00
2023-03-20T02:20:16.954Z,13.00
2023-03-20T02:23:10.506Z,13.00
2023-03-20T02:26:06.755Z,13.00
2023-03-20T02:28:51.508Z,12.90
2023-03-20T02:31:37.652Z,13.00
2023-03-20T02:34:41.233Z,12.90
2023-03-20T02:37:42.115Z,12.90
2023-03-20T02:40:27.485Z,12.90
2023-03-20T02:43:17.165Z,12.90
2023-03-20T02:45:47.041Z,12.90
2023-03-20T02:48:33.513Z,12.90
2023-03-20T02:51:27.491Z,12.90
2023-03-20T02:54:15.841Z,12.90
2023-03-20T02:57:09.181Z,12.90
2023-03-20T03:02:18.706Z,12.90
2023-03-20T03:04:57.012Z,12.90
2023-03-20T03:07:29.813Z,12.90
2023-03-20T03:10:19.881Z,12.90
2023-03-20T03:12:50.233Z,12.80
2023-03-20T03:15:23.022Z,12.80
2023-03-20T03:17:51.366Z,12.80
2023-03-20T03:20:32.460Z,12.80
2023-03-20T03:22:59.911Z,12.80
2023-03-20T03:25:30.583Z,12.80
2023-03-20T03:28:04.354Z,12.80
2023-03-20T03:30:35.812Z,12.80
2023-03-20T03:33:26.587Z,12.80
2023-03-20T03:36:06.492Z,12.80
2023-03-20T03:38:52.699Z,12.70
2023-03-20T03:41:25.299Z,12.70
2023-03-20T03:44:10.854Z,12.70
2023-03-20T03:46:56.267Z,12.70
2023-03-20T03:49:36.596Z,12.70
2023-03-20T03:52:12.088Z,12.70
2023-03-20T03:54:53.359Z,12.70
2023-03-20T03:57:27.416Z,12.70
2023-03-20T03:59:56.821Z,12.70
2023-03-20T04:02:24.297Z,12.60
2023-03-20T04:04:53.732Z,12.60
2023-03-20T04:07:21.472Z,12.60
2023-03-20T04:09:49.470Z,12.60
2023-03-20T04:12:35.896Z,12.60
2023-03-20T04:15:03.731Z,12.60
2023-03-20T04:17:32.556Z,12.60
2023-03-20T04:19:59.797Z,12.60
2023-03-20T04:22:26.651Z,12.60
2023-03-20T04:24:53.729Z,12.60
2023-03-20T04:27:22.914Z,12.60
2023-03-20T04:29:49.785Z,12.60
2023-03-20T04:32:17.151Z,12.50
2023-03-20T04:34:43.840Z,12.60
2023-03-20T04:37:10.719Z,12.60
2023-03-20T04:39:38.317Z,12.50
2023-03-20T04:42:06.249Z,12.50
2023-03-20T04:44:32.969Z,12.50
2023-03-20T04:47:00.443Z,12.50
2023-03-20T04:49:30.400Z,12.50
2023-03-20T04:51:57.106Z,12.50
2023-03-20T04:54:25.311Z,12.50
2023-03-20T04:56:52.126Z,12.50
2023-03-20T04:59:26.599Z,12.50
2023-03-20T05:01:53.567Z,12.50
2023-03-20T05:04:20.452Z,12.50
2023-03-20T05:06:49.229Z,12.50
2023-03-20T05:09:17.298Z,12.40
2023-03-20T05:11:44.025Z,12.40
2023-03-20T05:14:12.146Z,12.50
2023-03-20T05:16:39.578Z,12.40
2023-03-20T05:19:06.589Z,12.40
2023-03-20T05:21:34.169Z,12.40
2023-03-20T05:24:01.540Z,12.40
2023-03-20T05:26:29.367Z,12.40
2023-03-20T05:28:56.211Z,12.40
2023-03-20T05:31:23.168Z,12.40
2023-03-20T05:33:52.707Z,12.40
2023-03-20T05:36:19.432Z,12.40
2023-03-20T05:38:46.969Z,12.40
2023-03-20T05:41:13.709Z,12.40
2023-03-20T05:43:40.400Z,12.30
2023-03-20T05:46:07.505Z,12.30
2023-03-20T05:48:34.347Z,12.30
2023-03-20T05:51:02.412Z,12.20
2023-03-20T05:53:29.279Z,12.30
2023-03-20T05:55:56.487Z,12.20
2023-03-20T05:58:23.532Z,12.20
2023-03-20T06:00:50.578Z,12.20
2023-03-20T06:03:17.387Z,12.20
2023-03-20T06:05:44.868Z,12.20
2023-03-20T06:08:11.830Z,12.20
2023-03-20T06:10:39.077Z,12.10
2023-03-20T06:13:05.748Z,12.10
2023-03-20T06:15:34.089Z,12.10
2023-03-20T06:18:01.414Z,12.10
2023-03-20T06:20:28.208Z,12.00
2023-03-20T06:22:57.283Z,12.00
2023-03-20T08:24:00.515Z,12.80
2023-03-20T08:26:27.476Z,12.70
2023-03-20T08:28:54.210Z,12.80
2023-03-20T08:31:21.036Z,12.80
2023-03-20T08:33:48.141Z,12.80
2023-03-20T08:36:16.183Z,12.90
2023-03-20T08:38:43.130Z,12.90
2023-03-20T08:41:10.307Z,12.90
2023-03-20T08:43:37.132Z,12.90
2023-03-20T08:46:04.579Z,12.90
2023-03-20T08:48:31.395Z,12.90
2023-03-20T08:50:58.094Z,13.00
2023-03-20T08:53:26.697Z,13.00
2023-03-20T08:55:54.401Z,13.00
2023-03-20T08:58:22.485Z,13.10
2023-03-20T09:00:50.636Z,13.10
2023-03-20T09:03:19.740Z,13.10
2023-03-20T09:05:48.885Z,13.10
2023-03-20T09:08:16.592Z,13.10
2023-03-20T09:10:43.721Z,13.20
2023-03-20T09:13:26.197Z,13.20
2023-03-20T09:15:55.504Z,13.20
2023-03-20T09:18:22.924Z,13.20
2023-03-20T09:20:50.683Z,13.30
2023-03-20T09:23:18.109Z,13.30
2023-03-20T09:25:45.145Z,13.30
2023-03-20T09:28:12.025Z,13.30
2023-03-20T09:30:39.377Z,13.30
2023-03-20T09:33:06.611Z,13.40
2023-03-20T09:35:43.667Z,13.40
2023-03-20T09:38:12.304Z,13.50
2023-03-20T09:40:55.936Z,13.50
2023-03-20T09:43:44.594Z,13.60
2023-03-20T09:46:42.330Z,13.60
2023-03-20T09:49:41.776Z,13.70
2023-03-20T09:52:25.368Z,13.60
2023-03-20T09:54:57.575Z,13.50
2023-03-20T09:57:28.262Z,13.50
2023-03-20T10:00:02.872Z,13.50
2023-03-20T10:02:47.782Z,13.50
2023-03-20T10:05:18.591Z,13.50
2023-03-20T10:07:45.969Z,13.60
2023-03-20T10:10:15.453Z,13.60
2023-03-20T10:13:24.062Z,13.60
2023-03-20T10:15:59.068Z,13.60
2023-03-20T10:18:28.989Z,13.60
2023-03-20T10:20:56.305Z,13.60
2023-03-20T10:23:36.948Z,13.70
2023-03-20T10:26:09.186Z,13.70
2023-03-20T10:28:46.456Z,13.70
2023-03-20T10:31:30.182Z,13.70
2023-03-20T10:34:09.209Z,13.70
2023-03-20T10:36:47.899Z,13.70
2023-03-20T10:39:22.228Z,13.80
2023-03-20T10:41:54.909Z,13.90
2023-03-20T10:44:32.929Z,13.90
2023-03-20T10:47:02.440Z,13.90
2023-03-20T10:49:41.914Z,13.90
2023-03-20T10:52:16.410Z,14.00
2023-03-20T10:54:48.262Z,14.10
2023-03-20T10:57:24.420Z,14.10
2023-03-20T10:59:52.746Z,14.10
2023-03-20T11:02:23.307Z,14.10
2023-03-20T11:04:50.583Z,14.10
2023-03-20T11:07:24.441Z,14.10
2023-03-20T11:10:17.436Z,14.10
2023-03-20T11:12:49.163Z,14.20
2023-03-20T11:15:33.785Z,14.10
2023-03-20T11:18:15.855Z,14.20
2023-03-20T11:20:50.849Z,14.20
2023-03-20T11:23:35.230Z,14.10
2023-03-20T11:26:04.223Z,14.00
2023-03-20T11:28:43.432Z,14.10
2023-03-20T11:31:13.702Z,14.10
2023-03-20T11:33:44.522Z,14.10
2023-03-20T11:36:33.238Z,14.20
2023-03-20T11:39:11.757Z,14.20
2023-03-20T11:41:45.805Z,14.10
2023-03-20T11:44:31.983Z,14.20
2023-03-20T11:47:12.562Z,14.20
2023-03-20T11:49:47.924Z,14.10
2023-03-20T11:52:20.191Z,14.10
2023-03-20T11:54:50.960Z,14.10
2023-03-20T11:57:30.390Z,14.20
2023-03-20T11:59:58.705Z,14.20
2023-03-20T12:02:27.371Z,14.10
2023-03-20T12:04:59.027Z,14.10
2023-03-20T12:07:31.492Z,14.10
2023-03-20T12:10:14.031Z,14.20
2023-03-20T12:12:48.424Z,14.20
2023-03-20T12:15:35.671Z,14.30
2023-03-20T12:18:34.400Z,14.30
2023-03-20T12:21:28.676Z,14.30
2023-03-20T12:23:58.411Z,14.20
2023-03-20T12:26:37.759Z,14.20
2023-03-20T12:29:10.412Z,14.20
2023-03-20T12:31:48.216Z,14.10
2023-03-20T12:34:23.839Z,14.10
2023-03-20T12:37:00.137Z,14.20
2023-03-20T12:39:41.462Z,14.20
2023-03-20T12:42:09.524Z,14.20
2023-03-20T12:44:38.772Z,14.20
2023-03-20T12:47:20.384Z,14.20
2023-03-20T12:50:20.120Z,14.20
2023-03-20T12:53:02.646Z,14.10
2023-03-20T12:56:00.628Z,14.10
2023-03-20T12:58:48.350Z,14.10
2023-03-20T13:01:28.539Z,14.10
2023-03-20T13:04:21.490Z,14.20
2023-03-20T13:06:55.858Z,14.20
2023-03-20T13:09:57.196Z,14.10
2023-03-20T13:12:32.825Z,14.20
2023-03-20T13:15:30.681Z,14.20
2023-03-20T13:18:41.122Z,14.10
2023-03-20T13:21:15.813Z,14.10
2023-03-20T13:23:54.404Z,14.20
2023-03-20T13:26:38.712Z,14.10
2023-03-20T13:29:27.506Z,14.00
2023-03-20T13:32:19.173Z,13.90
2023-03-20T13:35:21.280Z,13.80
2023-03-20T13:37:58.986Z,13.80
2023-03-20T13:40:38.012Z,13.80
2023-03-20T13:43:27.306Z,13.80
2023-03-20T13:46:08.813Z,13.80
2023-03-20T13:48:40.705Z,13.80
2023-03-20T13:51:18.234Z,13.90
2023-03-20T13:54:03.127Z,14.00
2023-03-20T13:56:48.659Z,14.00
2023-03-20T13:59:30.873Z,13.90
2023-03-20T14:02:19.057Z,13.90
2023-03-20T14:04:53.114Z,14.00
2023-03-20T14:07:30.475Z,14.10
2023-03-20T14:09:57.480Z,14.00
2023-03-20T14:12:26.493Z,13.90
2023-03-20T14:14:57.330Z,13.80
2023-03-20T14:17:31.127Z,13.70
2023-03-20T14:20:09.590Z,13.70
2023-03-20T14:22:40.910Z,13.70
2023-03-20T14:25:18.429Z,13.70
2023-03-20T14:27:59.456Z,13.70
2023-03-20T14:30:32.109Z,13.70
2023-03-20T14:33:07.840Z,13.60
2023-03-20T14:35:42.687Z,13.60
2023-03-20T14:38:23.736Z,13.70
2023-03-20T14:40:56.482Z,13.80
2023-03-20T14:43:32.354Z,13.90
2023-03-20T14:46:22.376Z,14.00
2023-03-20T14:48:53.329Z,14.00
2023-03-20T14:51:33.083Z,14.00
2023-03-20T14:54:21.574Z,14.00
2023-03-20T14:56:53.047Z,13.90
2023-03-20T14:59:24.401Z,13.80
2023-03-20T15:02:01.424Z,13.80
2023-03-20T15:04:42.321Z,13.70
2023-03-20T15:07:12.122Z,13.70
2023-03-20T15:09:44.815Z,13.60
2023-03-20T15:12:21.359Z,13.60
2023-03-20T15:14:55.219Z,13.60
2023-03-20T15:17:27.219Z,13.70
2023-03-20T15:20:18.486Z,13.80
2023-03-20T15:22:52.663Z,13.80
2023-03-20T15:25:23.212Z,13.80
2023-03-20T15:27:52.098Z,13.90
2023-03-20T15:30:23.128Z,13.90
2023-03-20T15:32:54.921Z,14.00
2023-03-20T15:35:25.994Z,14.00
2023-03-20T15:37:56.320Z,13.90
2023-03-20T15:40:40.138Z,14.00
2023-03-20T15:43:20.081Z,14.10
2023-03-20T15:45:49.820Z,14.10
2023-03-20T15:48:20.622Z,14.00
2023-03-20T15:50:56.408Z,14.00
2023-03-20T15:53:38.195Z,13.90
2023-03-20T15:56:17.879Z,14.00
2023-03-20T15:58:48.029Z,13.90
2023-03-20T16:01:20.173Z,13.90
2023-03-20T16:03:48.380Z,13.80
2023-03-20T16:06:21.031Z,13.90
2023-03-20T16:08:58.532Z,13.80
2023-03-20T16:11:25.430Z,13.70
2023-03-20T16:13:56.049Z,13.70
2023-03-20T16:16:24.659Z,13.70
2023-03-20T16:18:51.826Z,13.50
2023-03-20T16:21:21.794Z,13.50
2023-03-20T16:23:52.084Z,13.50
2023-03-20T16:26:22.005Z,13.60
2023-03-20T16:28:55.358Z,13.60
2023-03-20T16:31:36.022Z,13.60
2023-03-20T16:34:09.087Z,13.60
2023-03-20T16:36:38.029Z,13.60
2023-03-20T16:39:10.867Z,13.60
2023-03-20T16:41:41.108Z,13.60
2023-03-20T16:44:15.558Z,13.60
2023-03-20T16:47:00.152Z,13.60
2023-03-20T16:49:29.790Z,13.50
2023-03-20T16:52:02.666Z,13.60
2023-03-20T16:54:34.649Z,13.60
2023-03-20T16:57:04.087Z,13.60
2023-03-20T16:59:30.968Z,13.70
2023-03-20T17:02:01.731Z,13.70
2023-03-20T17:04:34.883Z,13.80
2023-03-20T17:07:12.584Z,13.70
2023-03-20T17:09:53.719Z,13.80
2023-03-20T17:12:20.602Z,13.80
2023-03-20T17:14:47.409Z,13.80
2023-03-20T17:17:23.520Z,13.80
2023-03-20T17:19:50.788Z,13.80
2023-03-20T17:22:24.136Z,13.80
2023-03-20T17:24:53.754Z,13.80
2023-03-20T17:27:22.138Z,13.80
2023-03-20T17:29:52.177Z,13.80
2023-03-20T17:32:23.941Z,13.80
2023-03-20T17:34:51.503Z,13.80
2023-03-20T17:37:25.134Z,13.80
2023-03-20T17:39:55.530Z,13.70
2023-03-20T17:42:26.695Z,13.80
2023-03-20T17:44:53.724Z,13.80
2023-03-20T17:47:29.395Z,13.70
2023-03-20T17:49:56.178Z,13.70
2023-03-20T17:52:26.789Z,13.70
2023-03-20T17:54:53.586Z,13.70
2023-03-20T17:57:35.043Z,13.70
2023-03-20T18:00:06.530Z,13.70
2023-03-20T18:02:36.447Z,13.60
2023-03-20T18:05:03.301Z,13.60
2023-03-20T18:07:31.622Z,13.60
2023-03-20T18:09:59.654Z,13.60
2023-03-20T18:12:26.406Z,13.60
2023-03-20T18:14:53.206Z,13.60
2023-03-20T18:17:19.942Z,13.60
2023-03-20T18:19:46.645Z,13.60
2023-03-20T18:22:14.537Z,13.70
2023-03-20T18:24:45.407Z,13.70
2023-03-20T18:27:12.339Z,13.60
2023-03-20T18:29:39.114Z,13.60
2023-03-20T18:32:08.983Z,13.60
2023-03-20T18:34:35.720Z,13.60
2023-03-20T18:37:05.732Z,13.60
2023-03-20T18:39:32.579Z,13.60
2023-03-20T18:42:00.050Z,13.60
2023-03-20T18:44:27.892Z,13.60
2023-03-20T18:46:54.596Z,13.70
2023-03-20T18:49:22.306Z,13.70
2023-03-20T18:51:49.748Z,13.70
2023-03-20T18:54:18.618Z,13.70
2023-03-20T18:56:50.778Z,13.70
2023-03-20T18:59:19.169Z,13.80
2023-03-20T19:01:46.273Z,13.80
2023-03-20T19:04:13.160Z,13.80
2023-03-20T19:06:41.150Z,13.80
2023-03-20T19:09:11.605Z,13.80
2023-03-20T19:11:39.963Z,13.80
2023-03-20T19:14:06.717Z,13.80
2023-03-20T19:16:36.078Z,13.80
2023-03-20T19:19:06.830Z,13.80
2023-03-20T19:21:35.166Z,13.80
2023-03-20T19:24:04.788Z,13.80
2023-03-20T19:26:33.887Z,13.90
2023-03-20T19:29:08.705Z,13.80
2023-03-20T19:31:37.474Z,13.90
2023-03-20T19:34:04.341Z,13.90
2023-03-20T19:36:37.179Z,13.80
2023-03-20T19:39:06.551Z,13.90
2023-03-20T19:41:35.105Z,13.80
2023-03-20T19:44:06.211Z,13.80
2023-03-20T19:46:42.395Z,13.80
2023-03-20T19:49:19.665Z,13.80
2023-03-20T19:51:47.961Z,13.80
2023-03-20T19:54:16.448Z,13.80
2023-03-20T19:56:45.450Z,13.80
2023-03-20T19:59:15.999Z,13.80
2023-03-20T20:01:43.551Z,13.80
2023-03-20T20:04:10.670Z,13.80
2023-03-20T20:06:39.827Z,13.70
2023-03-20T20:09:08.396Z,13.70
2023-03-20T20:11:35.831Z,13.70
2023-03-20T20:14:08.703Z,13.70
2023-03-20T20:16:37.520Z,13.70
2023-03-20T20:19:04.658Z,13.70
2023-03-20T20:24:24.149Z,13.60
2023-03-20T20:26:56.761Z,13.60
2023-03-20T20:29:29.198Z,13.60
2023-03-20T20:31:57.000Z,13.60
2023-03-20T20:35:30.701Z,13.60
2023-03-20T20:40:04.461Z,13.60
2023-03-20T20:42:31.456Z,13.60
2023-03-20T20:44:58.204Z,13.50
2023-03-20T20:47:24.974Z,13.50
2023-03-20T20:49:52.099Z,13.50
2023-03-20T20:52:18.950Z,13.40
2023-03-20T20:54:45.842Z,13.40
2023-03-20T20:57:18.107Z,13.40
2023-03-20T20:59:45.854Z,13.30
2023-03-20T21:02:16.014Z,13.30
2023-03-20T21:04:43.828Z,13.30
2023-03-20T21:07:12.864Z,13.30
2023-03-20T21:09:40.576Z,13.30
2023-03-20T21:12:10.527Z,13.20
2023-03-20T21:14:37.903Z,13.20
2023-03-20T21:17:06.137Z,13.20
2023-03-20T21:19:37.977Z,13.20
2023-03-20T21:22:05.823Z,13.10
2023-03-20T21:24:34.683Z,13.10
2023-03-20T21:27:04.585Z,13.10
2023-03-20T21:29:31.712Z,13.10
2023-03-20T21:31:58.616Z,13.00
2023-03-20T21:34:26.088Z,13.00
2023-03-20T21:36:53.074Z,13.00
2023-03-20T21:39:21.180Z,13.00
2023-03-20T21:41:47.887Z,13.00
2023-03-20T21:44:24.524Z,13.00
2023-03-20T21:51:28.321Z,13.00
2023-03-20T21:53:12.465Z,12.90
2023-03-20T21:58:56.430Z,12.90
2023-03-20T22:01:42.107Z,12.90
2023-03-20T22:12:56.192Z,12.90
2023-03-20T22:21:16.083Z,12.80
2023-03-20T22:29:39.376Z,12.90
2023-03-20T22:32:35.214Z,12.90
2023-03-20T22:38:21.889Z,12.80
2023-03-20T22:40:51.808Z,12.90
2023-03-20T22:43:57.297Z,12.90
2023-03-20T22:46:07.560Z,12.90
2023-03-20T22:48:34.814Z,12.90
2023-03-20T22:51:01.580Z,13.00
2023-03-20T22:53:28.542Z,13.00
2023-03-20T22:55:55.421Z,13.00
2023-03-20T22:58:22.286Z,13.00
2023-03-20T23:00:48.970Z,12.90
2023-03-20T23:03:33.390Z,13.00
2023-03-20T23:06:09.441Z,12.90
2023-03-20T23:08:48.738Z,12.90
2023-03-20T23:11:18.150Z,12.90
2023-03-20T23:13:45.636Z,12.90
2023-03-20T23:16:13.042Z,12.90
2023-03-20T23:18:39.773Z,12.90
2023-03-20T23:21:06.838Z,12.80
2023-03-20T23:23:34.690Z,12.80
2023-03-20T23:26:10.642Z,12.80
2023-03-20T23:28:39.056Z,12.80
2023-03-20T23:31:20.676Z,12.80
2023-03-20T23:33:50.073Z,12.80
2023-03-20T23:36:34.546Z,12.80
2023-03-20T23:39:02.927Z,12.80
2023-03-20T23:41:57.633Z,12.80
2023-03-20T23:44:17.605Z,12.80
2023-03-20T23:46:46.953Z,12.80
2023-03-20T23:49:14.720Z,12.80
2023-03-20T23:51:46.371Z,12.90
2023-03-20T23:54:17.013Z,12.90
2023-03-20T23:56:43.822Z,12.90
2023-03-20T23:59:21.092Z,12.90
